createdAt,value
2023-04-01T00:00:58.973Z,92.11
2023-04-01T00:03:26.751Z,92.07
2023-04-01T00:05:54.132Z,92.27
2023-04-01T00:08:21.214Z,92.14
2023-04-01T00:10:47.941Z,92.33
2023-04-01T00:13:15.697Z,92.56
2023-04-01T00:15:43.044Z,92.52
2023-04-01T00:18:09.668Z,92.74
2023-04-01T00:20:36.167Z,92.78
2023-04-01T00:23:02.773Z,92.60
2023-04-01T00:25:29.653Z,92.52
2023-04-01T00:27:56.113Z,92.84
2023-04-01T00:30:22.554Z,92.55
2023-04-01T00:32:52.883Z,92.53
2023-04-01T00:35:19.497Z,92.41
2023-04-01T00:37:46.221Z,92.45
2023-04-01T00:40:31.758Z,92.45
2023-04-01T00:42:58.952Z,92.49
2023-04-01T00:45:27.328Z,92.63
2023-04-01T00:47:54.287Z,92.62
2023-04-01T00:50:23.312Z,92.64
2023-04-01T00:52:50.376Z,92.41
2023-04-01T00:55:20.211Z,92.19
2023-04-01T00:57:47.043Z,92.35
2023-04-01T01:00:15.977Z,92.42
2023-04-01T01:02:45.437Z,92.35
2023-04-01T01:05:16.756Z,92.34
2023-04-01T01:07:58.307Z,92.24
2023-04-01T01:10:35.945Z,92.49
2023-04-01T01:13:18.229Z,92.18
2023-04-01T01:15:54.942Z,92.34
2023-04-01T01:18:34.520Z,92.16
2023-04-01T01:21:52.140Z,92.17
2023-04-01T01:24:31.196Z,92.27
2023-04-01T01:27:03.749Z,92.44
2023-04-01T01:29:51.670Z,92.24
2023-04-01T01:32:45.884Z,92.43
2023-04-01T01:35:36.458Z,92.22
2023-04-01T01:38:07.019Z,92.37
2023-04-01T01:40:36.254Z,92.44
2023-04-01T01:43:07.443Z,92.56
2023-04-01T01:45:37.650Z,92.56
2023-04-01T01:48:06.197Z,92.37
2023-04-01T01:50:33.818Z,92.39
2023-04-01T01:53:05.213Z,92.35
2023-04-01T01:55:37.101Z,92.32
2023-04-01T01:58:43.985Z,92.32
2023-04-01T02:01:18.344Z,92.27
2023-04-01T02:03:46.604Z,91.99
2023-04-01T02:06:17.702Z,92.18
2023-04-01T02:08:50.650Z,91.99
2023-04-01T02:11:22.426Z,92.22
2023-04-01T02:13:57.919Z,91.66
2023-04-01T02:16:36.288Z,92.06
2023-04-01T02:19:08.367Z,91.92
2023-04-01T02:21:36.700Z,92.08
2023-04-01T02:24:06.904Z,91.87
2023-04-01T02:26:33.399Z,92.04
2023-04-01T02:29:01.993Z,92.10
2023-04-01T02:31:29.083Z,91.98
2023-04-01T02:33:55.930Z,92.27
2023-04-01T02:36:22.605Z,92.08
2023-04-01T02:38:51.626Z,92.20
2023-04-01T02:41:17.980Z,92.11
2023-04-01T02:43:44.377Z,92.03
2023-04-01T02:46:10.746Z,91.95
2023-04-01T02:48:37.131Z,91.94
2023-04-01T02:51:04.665Z,92.00
2023-04-01T02:53:31.033Z,91.93
2023-04-01T02:55:57.428Z,92.09
2023-04-01T02:58:23.791Z,91.96
2023-04-01T03:00:50.222Z,91.99
2023-04-01T03:03:16.756Z,91.91
2023-04-01T03:05:43.224Z,92.10
2023-04-01T03:08:09.635Z,91.83
2023-04-01T03:10:36.058Z,92.15
2023-04-01T03:13:02.569Z,92.09
2023-04-01T03:15:28.924Z,92.22
2023-04-01T03:17:55.388Z,92.07
2023-04-01T03:20:21.780Z,92.29
2023-04-01T03:22:48.278Z,92.45
2023-04-01T03:25:15.140Z,92.18
2023-04-01T03:27:41.587Z,92.21
2023-04-01T03:30:08.751Z,92.55
2023-04-01T03:32:35.217Z,92.40
2023-04-01T03:35:01.667Z,92.28
2023-04-01T03:37:28.337Z,92.50
2023-04-01T03:39:54.713Z,92.37
2023-04-01T03:42:21.248Z,92.62
2023-04-01T03:44:47.613Z,92.81
2023-04-01T03:47:13.979Z,92.78
2023-04-01T03:49:40.406Z,92.97
2023-04-01T03:52:10.619Z,93.12
2023-04-01T03:54:37.245Z,93.06
2023-04-01T03:57:03.742Z,93.06
2023-04-01T03:59:30.282Z,93.24
2023-04-01T04:01:56.700Z,93.17
2023-04-01T04:04:23.119Z,93.29
2023-04-01T04:06:49.525Z,93.31
2023-04-01T04:09:15.944Z,93.35
2023-04-01T04:11:42.314Z,93.47
2023-04-01T04:14:08.715Z,93.59
2023-04-01T04:16:38.575Z,93.51
2023-04-01T04:19:05.460Z,93.31
2023-04-01T04:21:31.966Z,93.51
2023-04-01T04:24:00.273Z,93.29
2023-04-01T04:26:27.658Z,93.56
2023-04-01T04:28:55.756Z,93.47
2023-04-01T04:31:24.368Z,93.74
2023-04-01T04:33:52.238Z,93.73
2023-04-01T04:36:19.823Z,93.68
2023-04-01T04:38:46.712Z,93.82
2023-04-01T04:41:18.707Z,94.01
2023-04-01T04:43:51.963Z,94.01
2023-04-01T04:46:18.586Z,94.02
2023-04-01T04:48:45.177Z,94.10
2023-04-01T04:51:15.564Z,94.39
2023-04-01T04:53:42.310Z,94.71
2023-04-01T04:56:08.721Z,94.40
2023-04-01T04:58:35.109Z,94.64
2023-04-01T05:01:07.788Z,94.78
2023-04-01T05:03:34.356Z,94.75
2023-04-01T05:06:00.931Z,95.00
2023-04-01T05:08:27.318Z,95.17
2023-04-01T05:10:53.659Z,95.31
2023-04-01T05:13:20.040Z,95.29
2023-04-01T05:15:46.387Z,95.29
2023-04-01T05:18:12.725Z,95.52
2023-04-01T05:20:39.101Z,95.35
2023-04-01T05:23:05.475Z,95.66
2023-04-01T05:25:32.150Z,95.62
2023-04-01T05:27:58.837Z,95.84
2023-04-01T05:30:25.277Z,95.81
2023-04-01T05:32:51.738Z,95.73
2023-04-01T05:35:18.108Z,95.59
2023-04-01T05:37:44.424Z,95.92
2023-04-01T05:40:11.368Z,95.44
2023-04-01T05:42:38.457Z,95.75
2023-04-01T05:45:06.198Z,95.57
2023-04-01T05:47:32.798Z,95.82
2023-04-01T05:49:59.384Z,95.72
2023-04-01T05:52:25.748Z,95.63
2023-04-01T05:54:52.306Z,95.75
2023-04-01T05:57:18.693Z,95.65
2023-04-01T05:59:45.502Z,95.58
2023-04-01T06:02:11.942Z,95.59
2023-04-01T06:04:41.051Z,95.74
2023-04-01T06:07:18.896Z,95.59
2023-04-01T06:09:46.187Z,95.83
2023-04-01T06:12:26.512Z,95.78
2023-04-01T06:15:27.013Z,95.64
2023-04-01T06:18:20.578Z,95.61
2023-04-01T06:21:18.924Z,95.60
2023-04-01T06:24:05.885Z,95.82
2023-04-01T06:26:40.450Z,95.69
2023-04-01T06:29:18.706Z,95.75
2023-04-01T06:31:57.257Z,95.77
2023-04-01T06:34:46.380Z,95.83
2023-04-01T06:37:29.434Z,95.70
2023-04-01T06:39:55.839Z,95.80
2023-04-01T06:42:37.433Z,96.00
2023-04-01T06:45:25.583Z,96.06
2023-04-01T06:48:03.886Z,96.02
2023-04-01T06:50:33.363Z,96.14
2023-04-01T06:53:22.288Z,96.27
2023-04-01T06:55:53.663Z,95.96
2023-04-01T06:58:31.666Z,96.28
2023-04-01T07:01:01.168Z,96.10
2023-04-01T07:03:34.335Z,96.17
2023-04-01T07:06:05.239Z,96.11
2023-04-01T07:08:37.226Z,96.01
2023-04-01T07:11:05.713Z,95.99
2023-04-01T07:13:51.354Z,95.82
2023-04-01T07:16:39.255Z,95.85
2023-04-01T07:19:32.895Z,95.75
2023-04-01T07:22:14.930Z,95.55
2023-04-01T07:24:44.856Z,95.46
2023-04-01T07:27:13.341Z,95.52
2023-04-01T07:29:39.991Z,95.69
2023-04-01T07:32:09.428Z,95.73
2023-04-01T07:35:09.813Z,95.65
2023-04-01T07:37:47.144Z,95.75
2023-04-01T07:40:40.086Z,95.76
2023-04-01T07:43:41.149Z,95.71
2023-04-01T07:46:14.557Z,95.68
2023-04-01T07:49:02.080Z,95.89
2023-04-01T07:52:07.698Z,95.85
2023-04-01T07:55:04.129Z,95.81
2023-04-01T07:57:39.537Z,95.91
2023-04-01T08:00:20.356Z,95.98
2023-04-01T08:02:52.999Z,96.01
2023-04-01T08:05:48.770Z,96.13
2023-04-01T08:08:24.726Z,96.12
2023-04-01T08:10:58.394Z,96.07
2023-04-01T08:13:51.777Z,96.25
2023-04-01T08:16:35.335Z,96.13
2023-04-01T08:19:16.070Z,96.29
2023-04-01T08:21:53.379Z,96.40
2023-04-01T08:24:47.767Z,96.37
2023-04-01T08:27:23.906Z,96.20
2023-04-01T08:30:05.029Z,96.35
2023-04-01T08:32:37.945Z,96.34
2023-04-01T08:35:28.902Z,96.25
2023-04-01T08:38:00.970Z,96.43
2023-04-01T08:40:57.711Z,96.53
2023-04-01T08:43:42.748Z,96.37
2023-04-01T08:46:53.752Z,96.52
2023-04-01T08:49:46.307Z,96.50
2023-04-01T08:52:33.010Z,96.39
2023-04-01T08:55:32.464Z,96.43
2023-04-01T08:57:58.964Z,96.28
2023-04-01T09:00:38.826Z,96.39
2023-04-01T09:03:36.385Z,96.25
2023-04-01T09:06:27.473Z,96.17
2023-04-01T09:09:07.972Z,95.94
2023-04-01T09:12:03.296Z,96.13
2023-04-01T09:14:48.201Z,96.24
2023-04-01T09:17:39.356Z,95.93
2023-04-01T09:20:43.229Z,96.02
2023-04-01T09:23:42.155Z,95.87
2023-04-01T09:26:40.834Z,96.08
2023-04-01T09:29:26.027Z,95.98
2023-04-01T09:32:10.890Z,96.16
2023-04-01T09:34:54.275Z,96.02
2023-04-01T09:37:22.765Z,96.02
2023-04-01T09:40:07.500Z,96.17
2023-04-01T09:42:56.876Z,95.98
2023-04-01T09:45:35.206Z,96.25
2023-04-01T09:48:35.414Z,96.24
2023-04-01T09:51:16.286Z,96.33
2023-04-01T09:53:55.018Z,96.24
2023-04-01T09:56:43.079Z,95.98
2023-04-01T10:00:14.385Z,95.97
2023-04-01T10:03:08.369Z,95.99
2023-04-01T10:05:52.821Z,95.99
2023-04-01T10:09:06.055Z,96.12
2023-04-01T10:12:01.922Z,96.08
2023-04-01T10:14:56.849Z,96.10
2023-04-01T10:17:34.646Z,95.65
2023-04-01T10:20:31.635Z,95.28
2023-04-01T10:23:28.801Z,94.97
2023-04-01T10:26:30.041Z,94.54
2023-04-01T10:29:14.951Z,94.13
2023-04-01T10:31:59.937Z,94.15
2023-04-01T10:34:57.730Z,94.12
2023-04-01T10:38:01.834Z,94.33
2023-04-01T10:40:54.306Z,93.98
2023-04-01T10:43:26.756Z,93.74
2023-04-01T10:46:19.491Z,93.92
2023-04-01T10:49:23.735Z,93.88
2023-04-01T10:52:05.345Z,94.00
2023-04-01T10:54:50.194Z,93.87
2023-04-01T10:57:44.632Z,93.71
2023-04-01T11:00:41.556Z,93.90
2023-04-01T11:03:29.823Z,93.17
2023-04-01T11:06:02.435Z,93.13
2023-04-01T11:08:53.887Z,93.22
2023-04-01T11:11:53.116Z,93.20
2023-04-01T11:14:33.946Z,93.16
2023-04-01T11:17:46.154Z,93.47
2023-04-01T11:20:59.377Z,93.79
2023-04-01T11:24:05.173Z,93.77
2023-04-01T11:26:58.212Z,93.86
2023-04-01T11:30:00.037Z,93.57
2023-04-01T11:33:02.392Z,93.87
2023-04-01T11:35:56.319Z,93.34
2023-04-01T11:39:07.452Z,92.64
2023-04-01T11:41:53.757Z,91.80
2023-04-01T11:44:23.378Z,91.05
2023-04-01T11:47:11.372Z,91.23
2023-04-01T11:49:43.784Z,91.80
2023-04-01T11:52:19.185Z,91.79
2023-04-01T11:54:54.594Z,92.00
2023-04-01T11:58:03.260Z,92.17
2023-04-01T12:00:54.467Z,92.64
2023-04-01T12:03:47.220Z,92.26
2023-04-01T12:06:31.117Z,92.60
2023-04-01T12:09:31.768Z,92.70
2023-04-01T12:12:19.933Z,92.69
2023-04-01T12:15:06.677Z,93.03
2023-04-01T12:17:33.010Z,93.08
2023-04-01T12:20:23.002Z,93.43
2023-04-01T12:23:04.779Z,93.59
2023-04-01T12:26:01.628Z,93.39
2023-04-01T12:29:00.237Z,93.61
2023-04-01T12:31:37.832Z,93.38
2023-04-01T12:34:42.133Z,93.63
2023-04-01T12:37:17.175Z,93.61
2023-04-01T12:40:23.945Z,94.04
2023-04-01T12:43:09.038Z,94.09
2023-04-01T12:45:41.487Z,94.07
2023-04-01T12:48:20.911Z,94.13
2023-04-01T12:51:17.729Z,94.08
2023-04-01T12:54:08.888Z,93.94
2023-04-01T12:57:20.518Z,94.23
2023-04-01T13:00:26.058Z,94.34
2023-04-01T13:03:31.199Z,94.31
2023-04-01T13:06:03.512Z,94.72
2023-04-01T13:08:59.953Z,94.52
2023-04-01T13:11:41.699Z,94.48
2023-04-01T13:14:32.217Z,94.20
2023-04-01T13:17:36.354Z,94.18
2023-04-01T13:20:36.517Z,94.24
2023-04-01T13:23:33.992Z,94.13
2023-04-01T13:26:14.824Z,94.14
2023-04-01T13:28:45.829Z,93.94
2023-04-01T13:31:34.383Z,94.17
2023-04-01T13:34:35.830Z,94.57
2023-04-01T13:37:26.290Z,94.56
2023-04-01T13:40:17.111Z,94.71
2023-04-01T13:42:54.740Z,94.88
2023-04-01T13:45:27.736Z,94.92
2023-04-01T13:48:36.783Z,95.02
2023-04-01T13:51:33.629Z,95.00
2023-04-01T13:54:35.554Z,95.09
2023-04-01T13:57:23.975Z,95.26
2023-04-01T14:00:16.431Z,95.34
2023-04-01T14:02:58.305Z,95.37
2023-04-01T14:05:41.941Z,95.52
2023-04-01T14:08:33.730Z,95.61
2023-04-01T14:11:18.993Z,95.52
2023-04-01T14:13:54.477Z,95.79
2023-04-01T14:16:39.668Z,95.58
2023-04-01T14:19:31.037Z,95.38
2023-04-01T14:22:05.464Z,95.32
2023-04-01T14:24:57.052Z,95.27
2023-04-01T14:27:38.363Z,95.11
2023-04-01T14:30:29.230Z,94.88
2023-04-01T14:33:14.308Z,94.81
2023-04-01T14:36:01.688Z,94.25
2023-04-01T14:38:40.117Z,94.39
2023-04-01T14:41:27.306Z,94.30
2023-04-01T14:44:13.192Z,94.17
2023-04-01T14:47:07.544Z,94.21
2023-04-01T14:50:03.821Z,94.58
2023-04-01T14:52:36.773Z,94.45
2023-04-01T14:55:36.934Z,94.39
2023-04-01T14:58:15.449Z,94.27
2023-04-01T15:01:14.200Z,94.24
2023-04-01T15:04:05.654Z,94.59
2023-04-01T15:07:15.199Z,94.46
2023-04-01T15:10:21.059Z,94.36
2023-04-01T15:13:14.752Z,94.45
2023-04-01T15:16:06.392Z,94.50
2023-04-01T15:18:50.269Z,94.28
2023-04-01T15:21:34.951Z,94.48
2023-04-01T15:24:10.599Z,94.46
2023-04-01T15:26:46.035Z,94.60
2023-04-01T15:29:23.968Z,94.52
2023-04-01T15:32:02.635Z,94.24
2023-04-01T15:34:49.478Z,94.35
2023-04-01T15:37:32.785Z,94.33
2023-04-01T15:40:25.456Z,94.32
2023-04-01T15:43:29.263Z,94.37
2023-04-01T15:45:58.575Z,94.25
2023-04-01T15:48:30.912Z,94.15
2023-04-01T15:51:30.354Z,94.15
2023-04-01T15:54:10.470Z,93.94
2023-04-01T15:56:52.922Z,93.87
2023-04-01T15:59:57.062Z,93.68
2023-04-01T16:03:01.532Z,93.32
2023-04-01T16:05:49.678Z,93.29
2023-04-01T16:08:25.089Z,93.04
2023-04-01T16:11:34.798Z,93.27
2023-04-01T16:14:04.215Z,92.96
2023-04-01T16:16:54.145Z,92.88
2023-04-01T16:19:45.266Z,92.82
2023-04-01T16:22:15.975Z,92.98
2023-04-01T16:25:11.098Z,92.92
2023-04-01T16:27:47.519Z,92.83
2023-04-01T16:30:38.149Z,92.90
2023-04-01T16:33:29.957Z,92.87
2023-04-01T16:36:11.693Z,92.91
2023-04-01T16:38:53.151Z,92.89
2023-04-01T16:41:37.885Z,92.83
2023-04-01T16:44:21.392Z,92.71
2023-04-01T16:46:53.119Z,92.40
2023-04-01T16:49:37.458Z,92.09
2023-04-01T16:52:03.792Z,92.26
2023-04-01T16:54:48.926Z,92.06
2023-04-01T16:57:18.899Z,91.52
2023-04-01T16:59:55.650Z,91.53
2023-04-01T17:02:38.150Z,91.36
2023-04-01T17:05:06.672Z,91.25
2023-04-01T17:08:01.170Z,91.25
2023-04-01T17:11:18.367Z,91.22
2023-04-01T17:13:58.717Z,91.09
2023-04-01T17:16:29.919Z,91.08
2023-04-01T17:19:15.065Z,90.84
2023-04-01T17:21:48.041Z,90.72
2023-04-01T17:24:36.355Z,90.53
2023-04-01T17:27:02.854Z,90.29
2023-04-01T17:30:16.411Z,90.38
2023-04-01T17:33:01.279Z,90.57
2023-04-01T17:35:49.770Z,90.92
2023-04-01T17:38:50.669Z,90.65
2023-04-01T17:41:54.377Z,90.63
2023-04-01T17:44:34.624Z,90.44
2023-04-01T17:47:31.602Z,90.56
2023-04-01T17:50:19.677Z,90.52
2023-04-01T17:53:21.782Z,90.47
2023-04-01T17:55:59.632Z,90.34
2023-04-01T17:58:48.290Z,90.28
2023-04-01T18:01:18.196Z,90.11
2023-04-01T18:04:16.134Z,90.17
2023-04-01T18:07:08.347Z,89.82
2023-04-01T18:09:54.029Z,89.60
2023-04-01T18:12:37.159Z,89.88
2023-04-01T18:15:18.928Z,89.82
2023-04-01T18:18:08.986Z,89.84
2023-04-01T18:21:04.443Z,89.69
2023-04-01T18:23:44.576Z,89.50
2023-04-01T18:27:18.125Z,89.35
2023-04-01T18:29:48.233Z,89.29
2023-04-01T18:32:39.986Z,89.38
2023-04-01T18:35:22.229Z,89.15
2023-04-01T18:37:52.206Z,89.41
2023-04-01T18:40:26.427Z,89.14
2023-04-01T18:43:05.478Z,89.29
2023-04-01T18:45:38.454Z,88.92
2023-04-01T18:48:16.373Z,89.10
2023-04-01T18:50:56.270Z,88.94
2023-04-01T18:53:32.428Z,88.97
2023-04-01T18:56:02.249Z,88.76
2023-04-01T18:58:49.697Z,88.66
2023-04-01T19:01:16.039Z,88.93
2023-04-01T19:03:52.892Z,88.65
2023-04-01T19:06:36.903Z,88.43
2023-04-01T19:09:25.947Z,88.67
2023-04-01T19:12:24.568Z,88.16
2023-04-01T19:15:18.272Z,88.29
2023-04-01T19:17:54.578Z,88.43
2023-04-01T19:20:31.377Z,88.37
2023-04-01T19:23:25.075Z,88.33
2023-04-01T19:26:00.691Z,88.22
2023-04-01T19:28:59.387Z,88.17
2023-04-01T19:31:44.433Z,87.96
2023-04-01T19:34:31.013Z,87.92
2023-04-01T19:37:21.376Z,87.81
2023-04-01T19:40:27.075Z,88.00
2023-04-01T19:43:38.033Z,88.12
2023-04-01T19:46:17.244Z,87.85
2023-04-01T19:49:05.366Z,87.75
2023-04-01T19:52:01.911Z,87.84
2023-04-01T19:54:42.860Z,87.70
2023-04-01T19:57:31.441Z,87.57
2023-04-01T20:00:08.088Z,87.35
2023-04-01T20:02:51.740Z,87.45
2023-04-01T20:05:38.369Z,88.07
2023-04-01T20:08:15.570Z,87.57
2023-04-01T20:11:01.267Z,87.89
2023-04-01T20:13:37.614Z,87.86
2023-04-01T20:16:08.876Z,87.85
2023-04-01T20:18:45.814Z,87.67
2023-04-01T20:21:14.883Z,87.73
2023-04-01T20:24:01.646Z,87.46
2023-04-01T20:26:52.195Z,87.42
2023-04-01T20:29:37.503Z,87.56
2023-04-01T20:32:30.900Z,87.24
2023-04-01T20:35:03.776Z,87.29
2023-04-01T20:37:43.020Z,86.88
2023-04-01T20:40:34.297Z,86.94
2023-04-01T20:43:03.471Z,86.92
2023-04-01T20:45:44.009Z,86.92
2023-04-01T20:48:29.153Z,86.61
2023-04-01T20:51:00.347Z,86.67
2023-04-01T20:53:58.290Z,86.87
2023-04-01T20:56:48.699Z,86.50
2023-04-01T20:59:28.362Z,86.62
2023-04-01T21:02:12.294Z,86.83
2023-04-01T21:05:03.932Z,86.74
2023-04-01T21:07:33.305Z,86.75
2023-04-01T21:10:20.259Z,86.36
2023-04-01T21:13:01.504Z,86.37
2023-04-01T21:15:34.518Z,86.89
2023-04-01T21:18:22.844Z,86.68
2023-04-01T21:21:04.468Z,86.82
2023-04-01T21:24:12.064Z,86.97
2023-04-01T21:27:17.589Z,87.11
2023-04-01T21:29:59.804Z,87.31
2023-04-01T21:32:38.992Z,87.36
2023-04-01T21:35:19.184Z,87.28
2023-04-01T21:38:33.628Z,87.57
2023-04-01T21:41:16.541Z,87.14
2023-04-01T21:43:58.008Z,87.52
2023-04-01T21:46:55.124Z,87.36
2023-04-01T21:49:39.846Z,87.32
2023-04-01T21:52:42.305Z,87.49
2023-04-01T21:55:43.883Z,87.77
2023-04-01T21:58:19.207Z,87.56
2023-04-01T22:01:17.013Z,87.92
2023-04-01T22:04:00.463Z,87.36
2023-04-01T22:06:41.934Z,87.71
2023-04-01T22:09:17.156Z,87.56
2023-04-01T22:11:55.101Z,87.56
2023-04-01T22:14:29.235Z,87.54
2023-04-01T22:17:14.498Z,87.17
2023-04-01T22:19:58.059Z,86.83
2023-04-01T22:22:53.328Z,86.86
2023-04-01T22:25:31.803Z,86.97
2023-04-01T22:28:10.257Z,86.68
2023-04-01T22:30:50.220Z,86.91
2023-04-01T22:33:54.801Z,86.86
2023-04-01T22:36:44.018Z,86.43
2023-04-01T22:39:29.164Z,86.82
2023-04-01T22:42:33.025Z,86.77
2023-04-01T22:45:33.809Z,86.43
2023-04-01T22:48:23.583Z,86.82
2023-04-01T22:51:20.526Z,86.40
2023-04-01T22:53:58.060Z,86.30
2023-04-01T22:56:38.090Z,86.36
2023-04-01T22:59:19.933Z,86.58
2023-04-01T23:01:54.507Z,86.37
2023-04-01T23:04:26.256Z,86.31
2023-04-01T23:06:58.866Z,86.23
2023-04-01T23:09:32.252Z,86.05
2023-04-01T23:11:59.702Z,86.15
2023-04-01T23:14:34.738Z,86.01
2023-04-01T23:17:21.650Z,85.87
2023-04-01T23:19:53.747Z,85.95
2023-04-01T23:22:47.232Z,85.86
2023-04-01T23:25:26.163Z,86.33
2023-04-01T23:28:15.358Z,86.33
2023-04-01T23:30:41.762Z,86.49
2023-04-01T23:33:20.465Z,86.12
2023-04-01T23:35:54.942Z,86.15
2023-04-01T23:38:24.897Z,86.11
2023-04-01T23:40:54.098Z,86.25
2023-04-01T23:43:28.272Z,85.92
2023-04-01T23:45:59.718Z,86.02
2023-04-01T23:48:33.696Z,85.86
2023-04-01T23:51:01.072Z,86.04
2023-04-01T23:53:33.508Z,86.01
2023-04-01T23:56:00.024Z,86.04
2023-04-01T23:58:39.318Z,85.63
